Time;durP1;ratioP1;P1;durP2;ratioP2;P2;SDS_P1;SDS_P2;PMS_P1;PMS_P2;Temp;Humidity;BMP_temperature;BMP_pressure;BME280_temperature;BME280_humidity;BME280_pressure;Samples;Min_cycle;Max_cycle;Signal;HPM_P1;HPM_P2
2024/01/27 00:00:34;;;;;;;10.73;2.58;;;22.60;99.90;;;;;;4935527;29;20385;-68
2024/01/27 00:03:02;;;;;;;11.93;2.85;;;22.70;99.90;;;;;;4936656;29;20032;-68
2024/01/27 00:05:30;;;;;;;13.00;3.10;;;22.70;99.90;;;;;;4935422;29;20024;-69
2024/01/27 00:07:57;;;;;;;11.32;2.60;;;22.80;99.90;;;;;;4951458;28;20421;-69
2024/01/27 00:10:24;;;;;;;10.73;2.75;;;22.80;99.90;;;;;;4946084;28;20433;-69
2024/01/27 00:12:52;;;;;;;14.43;3.28;;;22.80;99.90;;;;;;4938416;28;20035;-69
2024/01/27 00:15:19;;;;;;;10.13;2.90;;;22.80;99.90;;;;;;4946840;28;20050;-69
2024/01/27 00:17:46;;;;;;;15.40;2.78;;;22.80;99.90;;;;;;4947140;29;20035;-69
2024/01/27 00:20:14;;;;;;;12.40;3.33;;;22.90;99.90;;;;;;4948348;28;20023;-69
2024/01/27 00:22:41;;;;;;;13.70;3.40;;;22.90;99.90;;;;;;4940081;28;20039;-69
2024/01/27 00:25:09;;;;;;;13.18;3.28;;;22.90;99.90;;;;;;4940570;29;20032;-69
2024/01/27 00:27:37;;;;;;;15.43;3.30;;;22.90;99.90;;;;;;4948407;28;20035;-69
2024/01/27 00:30:05;;;;;;;12.57;3.30;;;22.90;99.90;;;;;;4942736;29;20111;-69
2024/01/27 00:32:33;;;;;;;12.57;3.08;;;22.90;99.90;;;;;;4939551;29;20043;-69
2024/01/27 00:35:01;;;;;;;11.88;3.08;;;22.80;99.90;;;;;;4947921;29;20038;-70
2024/01/27 00:37:28;;;;;;;11.52;2.72;;;22.80;99.90;;;;;;4941800;29;20074;-70
2024/01/27 00:39:56;;;;;;;11.52;2.85;;;22.80;99.90;;;;;;4942231;29;20034;-69
2024/01/27 00:42:24;;;;;;;13.98;2.90;;;22.90;99.90;;;;;;4939243;28;20111;-69
2024/01/27 00:44:54;;;;;;;14.88;2.85;;;22.90;99.90;;;;;;4946438;29;20580;-69
2024/01/27 00:47:21;;;;;;;17.35;3.60;;;23.10;99.90;;;;;;4940636;29;20120;-69
2024/01/27 00:49:49;;;;;;;13.45;2.85;;;23.10;99.90;;;;;;4943911;28;20027;-69
2024/01/27 00:52:16;;;;;;;12.07;3.28;;;23.30;99.90;;;;;;4939247;29;20050;-68
2024/01/27 00:54:43;;;;;;;12.38;2.90;;;23.30;99.90;;;;;;4941649;28;20036;-69
2024/01/27 00:57:11;;;;;;;12.10;3.90;;;23.10;99.90;;;;;;4938021;29;20028;-69
2024/01/27 00:59:38;;;;;;;12.63;3.67;;;22.90;99.90;;;;;;4938873;28;20028;-69
2024/01/27 01:02:06;;;;;;;13.00;3.35;;;23.10;99.90;;;;;;4939815;29;20038;-69
2024/01/27 01:04:34;;;;;;;11.23;3.50;;;23.30;99.90;;;;;;4946701;28;20024;-69
2024/01/27 01:07:02;;;;;;;14.90;3.42;;;23.20;99.90;;;;;;4935479;29;20032;-69
2024/01/27 01:09:29;;;;;;;17.58;3.97;;;23.00;99.90;;;;;;4939436;28;20039;-69
2024/01/27 01:11:56;;;;;;;15.40;3.25;;;23.40;99.90;;;;;;4941509;28;20040;-70
2024/01/27 01:14:24;;;;;;;15.38;3.40;;;23.60;99.90;;;;;;4938619;29;20026;-69
2024/01/27 01:16:51;;;;;;;13.60;3.95;;;23.40;99.90;;;;;;4948456;28;20027;-69
2024/01/27 01:19:18;;;;;;;9.73;3.10;;;23.20;99.90;;;;;;4940513;28;20432;-69
2024/01/27 01:21:46;;;;;;;17.67;3.95;;;23.00;99.90;;;;;;4935719;29;20039;-69
2024/01/27 01:24:13;;;;;;;13.27;4.13;;;22.90;99.90;;;;;;4936778;28;20024;-69
2024/01/27 01:26:40;;;;;;;11.63;3.92;;;22.80;99.90;;;;;;4937573;28;20027;-69
2024/01/27 01:29:08;;;;;;;11.15;3.67;;;22.80;99.90;;;;;;4938245;28;20081;-69
2024/01/27 01:31:35;;;;;;;12.88;3.00;;;22.90;99.90;;;;;;4947222;29;20070;-71
2024/01/27 01:34:02;;;;;;;11.10;3.58;;;23.00;99.90;;;;;;4940827;28;20485;-69
2024/01/27 01:36:30;;;;;;;8.50;3.05;;;23.10;99.90;;;;;;4938267;28;20550;-69
2024/01/27 01:38:57;;;;;;;9.40;3.65;;;23.20;99.90;;;;;;4941598;28;20031;-70
2024/01/27 01:41:25;;;;;;;13.25;3.15;;;23.20;99.90;;;;;;4944332;28;20043;-69
2024/01/27 01:43:52;;;;;;;15.02;3.58;;;23.20;99.90;;;;;;4940789;29;20528;-69
2024/01/27 01:46:19;;;;;;;10.48;3.58;;;23.10;99.90;;;;;;4941351;29;20538;-69
2024/01/27 01:48:47;;;;;;;10.85;3.50;;;22.90;99.90;;;;;;4932904;29;20035;-69
2024/01/27 01:51:14;;;;;;;9.80;2.85;;;22.90;99.90;;;;;;4935237;29;20043;-68
2024/01/27 01:53:42;;;;;;;11.18;2.85;;;22.90;99.90;;;;;;4941702;29;20059;-68
2024/01/27 01:56:10;;;;;;;8.23;2.63;;;22.90;99.90;;;;;;4935986;29;20035;-69
2024/01/27 01:58:37;;;;;;;9.65;2.97;;;23.00;99.90;;;;;;4948519;28;20039;-69
2024/01/27 02:01:05;;;;;;;10.98;2.88;;;22.90;99.90;;;;;;4938472;28;20090;-69
2024/01/27 02:03:32;;;;;;;7.78;3.00;;;22.90;99.90;;;;;;4943390;29;20031;-69
2024/01/27 02:05:59;;;;;;;8.88;2.70;;;23.00;99.90;;;;;;4933767;29;20485;-69
2024/01/27 02:08:27;;;;;;;11.07;3.33;;;23.40;99.90;;;;;;4936232;28;20032;-69
2024/01/27 02:10:54;;;;;;;6.25;2.03;;;23.70;99.90;;;;;;4940510;29;20031;-70
2024/01/27 02:13:23;;;;;;;11.48;2.40;;;23.80;99.90;;;;;;4942219;29;20035;-69
2024/01/27 02:15:51;;;;;;;7.53;1.63;;;24.00;99.90;;;;;;4935365;28;20051;-69
2024/01/27 02:18:18;;;;;;;6.85;3.05;;;24.10;99.90;;;;;;4936046;29;20027;-69
2024/01/27 02:20:46;;;;;;;8.25;2.65;;;23.90;99.90;;;;;;4948155;28;20385;-69
2024/01/27 02:23:13;;;;;;;8.48;2.53;;;23.80;99.90;;;;;;4938000;29;20034;-71
2024/01/27 02:25:40;;;;;;;7.10;2.80;;;23.70;99.90;;;;;;4938212;29;20024;-69
2024/01/27 02:28:08;;;;;;;12.80;3.50;;;24.00;99.90;;;;;;4937021;28;20042;-69
2024/01/27 02:30:35;;;;;;;7.55;3.85;;;24.10;99.90;;;;;;4943355;29;20063;-69
2024/01/27 02:33:03;;;;;;;8.82;3.45;;;23.90;99.90;;;;;;4934388;29;20062;-69
2024/01/27 02:35:30;;;;;;;6.35;2.92;;;24.10;99.90;;;;;;4944983;29;20105;-69
2024/01/27 02:37:57;;;;;;;7.03;3.22;;;24.30;99.90;;;;;;4944090;28;20086;-69
2024/01/27 02:40:25;;;;;;;6.70;2.55;;;24.20;99.90;;;;;;4944231;28;20031;-69
2024/01/27 02:42:52;;;;;;;7.30;3.15;;;24.10;99.90;;;;;;4939044;28;20721;-69
2024/01/27 02:45:19;;;;;;;8.05;3.45;;;24.20;99.90;;;;;;4937351;28;20670;-69
2024/01/27 02:47:47;;;;;;;5.45;2.15;;;24.40;99.90;;;;;;4949859;28;20035;-69
2024/01/27 02:50:15;;;;;;;6.00;1.90;;;24.60;99.90;;;;;;4937172;28;20027;-69
2024/01/27 02:52:42;;;;;;;6.57;2.40;;;24.60;99.90;;;;;;4934296;28;20063;-68
2024/01/27 02:55:10;;;;;;;6.25;3.00;;;24.30;99.90;;;;;;4937126;28;20055;-68
2024/01/27 02:57:37;;;;;;;9.90;2.00;;;24.00;99.90;;;;;;4936514;28;20027;-68
2024/01/27 03:00:05;;;;;;;11.98;2.42;;;23.90;99.90;;;;;;4943169;29;20059;-69
2024/01/27 03:02:32;;;;;;;11.25;2.30;;;23.60;99.90;;;;;;4936529;29;20024;-69
2024/01/27 03:05:00;;;;;;;12.98;2.63;;;23.60;99.90;;;;;;4936601;29;20028;-69
2024/01/27 03:07:31;;;;;;;14.52;3.53;;;23.30;99.90;;;;;;4938758;29;20130;-68
2024/01/27 03:09:59;;;;;;;13.38;3.13;;;23.00;99.90;;;;;;4938779;29;20024;-69
2024/01/27 03:12:26;;;;;;;19.33;3.67;;;22.80;99.90;;;;;;4949648;28;20488;-69
2024/01/27 03:14:54;;;;;;;13.90;3.03;;;22.50;99.90;;;;;;4936064;28;20111;-69
2024/01/27 03:17:22;;;;;;;23.08;3.75;;;22.60;99.90;;;;;;4948080;29;20035;-69
2024/01/27 03:19:49;;;;;;;17.58;3.50;;;22.60;99.90;;;;;;4941138;28;20050;-69
2024/01/27 03:22:16;;;;;;;13.27;3.03;;;22.30;99.90;;;;;;4938389;29;20024;-69
2024/01/27 03:24:44;;;;;;;14.85;2.90;;;22.60;99.90;;;;;;4938672;28;20054;-70
2024/01/27 03:27:11;;;;;;;9.45;2.92;;;22.40;99.90;;;;;;4944663;29;20042;-69
2024/01/27 03:29:38;;;;;;;13.30;2.70;;;22.30;99.90;;;;;;4936568;29;20386;-69
2024/01/27 03:32:06;;;;;;;20.10;2.97;;;22.50;99.90;;;;;;4938044;29;20354;-70
2024/01/27 03:34:33;;;;;;;13.55;3.17;;;22.40;99.90;;;;;;4944220;28;20035;-69
2024/01/27 03:37:00;;;;;;;18.83;3.15;;;22.40;99.90;;;;;;4943598;29;20047;-69
2024/01/27 03:39:27;;;;;;;14.82;3.03;;;22.50;99.90;;;;;;4936000;29;20409;-69
2024/01/27 03:41:55;;;;;;;14.40;2.88;;;22.80;99.90;;;;;;4936184;29;20020;-69
2024/01/27 03:44:22;;;;;;;14.70;3.00;;;23.00;99.90;;;;;;4945355;29;20027;-69
2024/01/27 03:46:51;;;;;;;17.77;4.30;;;23.00;99.90;;;;;;4936163;29;20043;-68
2024/01/27 03:49:18;;;;;;;17.70;3.67;;;23.30;99.90;;;;;;4940231;29;20035;-69
2024/01/27 03:51:45;;;;;;;18.35;2.92;;;23.50;99.90;;;;;;4947512;29;20503;-69
2024/01/27 03:54:14;;;;;;;14.98;2.75;;;23.80;99.90;;;;;;4942373;29;20047;-69
2024/01/27 03:56:43;;;;;;;15.55;3.13;;;23.80;99.90;;;;;;4935696;29;20031;-69
2024/01/27 03:59:11;;;;;;;20.80;2.88;;;24.00;99.90;;;;;;4939692;28;20192;-69
2024/01/27 04:01:38;;;;;;;18.38;2.53;;;23.90;99.90;;;;;;4944555;28;20050;-69
2024/01/27 04:04:06;;;;;;;15.50;2.50;;;23.80;99.90;;;;;;4949909;28;20042;-69
2024/01/27 04:06:42;;;;;;;16.20;3.17;;;24.00;99.90;;;;;;4942404;28;20507;-69
2024/01/27 04:09:10;;;;;;;14.85;2.97;;;24.50;99.90;;;;;;4944100;29;20397;-70
2024/01/27 04:11:41;;;;;;;11.23;2.20;;;24.60;99.90;;;;;;4936558;28;20043;-70
2024/01/27 04:14:08;;;;;;;15.15;3.15;;;24.70;99.90;;;;;;4940071;28;20615;-69
2024/01/27 04:16:36;;;;;;;15.30;3.08;;;24.80;99.90;;;;;;4938073;28;20500;-69
2024/01/27 04:19:03;;;;;;;18.13;3.47;;;25.10;99.90;;;;;;4945117;28;20067;-68
2024/01/27 04:21:30;;;;;;;20.58;4.13;;;25.40;99.90;;;;;;4939180;28;20027;-69
2024/01/27 04:23:58;;;;;;;21.08;3.75;;;25.50;99.90;;;;;;4940062;28;20034;-68
2024/01/27 04:26:25;;;;;;;16.30;3.38;;;25.80;99.90;;;;;;4939842;28;20023;-68
2024/01/27 04:28:52;;;;;;;18.42;3.80;;;26.00;99.90;;;;;;4938732;28;20031;-69
2024/01/27 04:31:20;;;;;;;22.52;4.75;;;26.20;99.90;;;;;;4938791;28;20047;-68
2024/01/27 04:33:47;;;;;;;15.10;3.95;;;26.00;99.90;;;;;;4942936;28;20035;-69
2024/01/27 04:36:14;;;;;;;20.42;4.35;;;25.40;99.90;;;;;;4943739;28;20520;-69
2024/01/27 04:38:44;;;;;;;19.88;4.85;;;25.20;99.90;;;;;;4944972;28;20051;-69
2024/01/27 04:41:11;;;;;;;23.88;4.90;;;25.50;99.90;;;;;;4948298;28;20046;-69
2024/01/27 04:43:38;;;;;;;19.35;3.92;;;25.80;99.90;;;;;;4934893;28;20536;-69
2024/01/27 04:46:07;;;;;;;18.80;3.03;;;25.80;99.90;;;;;;4937917;29;20075;-69
2024/01/27 04:48:34;;;;;;;14.98;2.90;;;25.60;99.90;;;;;;4935513;29;20035;-69
2024/01/27 04:51:02;;;;;;;16.30;3.65;;;25.30;99.90;;;;;;4935306;29;20405;-69
2024/01/27 04:53:29;;;;;;;13.63;3.00;;;25.60;99.90;;;;;;4946109;28;20073;-69
2024/01/27 04:55:56;;;;;;;13.35;2.97;;;25.80;99.90;;;;;;4934873;29;20461;-69
2024/01/27 04:58:23;;;;;;;14.63;3.58;;;25.80;99.90;;;;;;4942097;29;20020;-69
2024/01/27 05:00:51;;;;;;;10.95;2.92;;;25.70;99.90;;;;;;4938019;28;20123;-69
2024/01/27 05:03:18;;;;;;;15.55;2.95;;;25.30;99.90;;;;;;4955096;28;20493;-70
2024/01/27 05:05:45;;;;;;;17.52;3.13;;;25.20;99.90;;;;;;4934829;29;20135;-69
2024/01/27 05:08:13;;;;;;;18.75;3.50;;;25.00;99.90;;;;;;4937047;29;20087;-69
2024/01/27 05:10:41;;;;;;;12.82;3.25;;;25.20;99.90;;;;;;4938656;28;20057;-69
2024/01/27 05:13:08;;;;;;;15.55;3.22;;;25.60;99.90;;;;;;4940021;28;20035;-72
2024/01/27 05:15:35;;;;;;;17.42;2.97;;;25.80;99.90;;;;;;4938429;29;20034;-71
2024/01/27 05:18:03;;;;;;;16.27;3.05;;;25.70;99.90;;;;;;4938502;29;20482;-69
2024/01/27 05:20:30;;;;;;;19.27;3.42;;;25.60;99.90;;;;;;4940108;28;20439;-70
2024/01/27 05:22:58;;;;;;;13.77;2.88;;;25.50;99.90;;;;;;4947407;28;20469;-69
2024/01/27 05:25:25;;;;;;;12.70;2.70;;;25.20;99.90;;;;;;4941377;29;20183;-69
2024/01/27 05:27:52;;;;;;;13.70;3.25;;;25.10;99.90;;;;;;4935198;28;20059;-70
2024/01/27 05:30:20;;;;;;;14.35;2.97;;;25.00;99.90;;;;;;4943298;28;20062;-70
2024/01/27 05:32:47;;;;;;;19.70;3.83;;;24.90;99.90;;;;;;4940146;28;20047;-69
2024/01/27 05:35:14;;;;;;;15.02;2.53;;;24.70;99.90;;;;;;4934550;29;20019;-69
2024/01/27 05:37:42;;;;;;;14.63;3.13;;;24.70;99.90;;;;;;4941907;29;20031;-69
2024/01/27 05:40:10;;;;;;;16.88;2.80;;;24.70;99.90;;;;;;4938383;28;20058;-69
2024/01/27 05:42:40;;;;;;;16.75;3.10;;;24.60;99.90;;;;;;4942523;28;20154;-69
2024/01/27 05:45:09;;;;;;;11.98;2.80;;;24.50;99.90;;;;;;4966096;28;20036;-70
2024/01/27 05:47:36;;;;;;;19.52;3.15;;;24.50;99.90;;;;;;4940154;28;20512;-69
2024/01/27 05:50:04;;;;;;;19.88;3.25;;;24.50;99.90;;;;;;4937948;28;20028;-70
2024/01/27 05:52:31;;;;;;;16.77;2.78;;;24.30;99.90;;;;;;4936093;28;20046;-69
2024/01/27 05:54:59;;;;;;;18.77;3.17;;;24.30;99.90;;;;;;4937074;28;20032;-69
2024/01/27 05:57:26;;;;;;;20.65;3.53;;;24.10;99.90;;;;;;4940662;28;20377;-69
2024/01/27 05:59:54;;;;;;;17.35;2.90;;;24.00;99.90;;;;;;4938412;28;20066;-69
2024/01/27 06:02:21;;;;;;;21.60;4.07;;;24.00;99.90;;;;;;4948735;28;20023;-69
2024/01/27 06:04:48;;;;;;;18.95;2.72;;;23.80;99.90;;;;;;4939983;29;20031;-70
2024/01/27 06:07:16;;;;;;;15.50;3.22;;;24.00;99.90;;;;;;4940007;29;20024;-69
2024/01/27 06:09:43;;;;;;;20.27;3.20;;;24.00;99.90;;;;;;4939968;28;20031;-68
2024/01/27 06:12:10;;;;;;;19.17;3.38;;;24.20;99.90;;;;;;4933640;29;20134;-71
2024/01/27 06:14:38;;;;;;;18.45;2.30;;;24.10;99.90;;;;;;4937807;29;20393;-69
2024/01/27 06:17:05;;;;;;;14.35;2.75;;;24.10;99.90;;;;;;4944682;28;20054;-69
2024/01/27 06:19:33;;;;;;;14.10;2.55;;;24.00;99.90;;;;;;4941119;29;20102;-69
2024/01/27 06:22:00;;;;;;;8.75;2.63;;;23.90;99.90;;;;;;4943353;28;20027;-69
2024/01/27 06:24:27;;;;;;;19.67;3.00;;;23.70;99.90;;;;;;4947232;29;20035;-69
2024/01/27 06:26:55;;;;;;;15.75;2.35;;;23.80;99.90;;;;;;4940351;28;20126;-70
2024/01/27 06:29:23;;;;;;;20.65;2.53;;;23.80;99.90;;;;;;4934631;29;20034;-69
2024/01/27 06:31:50;;;;;;;15.13;2.75;;;23.80;99.90;;;;;;4956225;28;20052;-69
2024/01/27 06:34:18;;;;;;;16.48;2.42;;;23.80;99.90;;;;;;4939482;28;20042;-70
2024/01/27 06:36:45;;;;;;;20.60;3.10;;;24.00;99.90;;;;;;4933302;29;20034;-70
2024/01/27 06:39:12;;;;;;;16.23;3.50;;;23.90;99.90;;;;;;4934178;29;20032;-70
2024/01/27 06:41:40;;;;;;;17.70;2.60;;;23.80;99.90;;;;;;4940438;29;20090;-69
2024/01/27 06:44:07;;;;;;;20.98;3.08;;;23.70;99.90;;;;;;4936700;28;20024;-68
2024/01/27 06:46:35;;;;;;;21.88;3.70;;;23.70;99.90;;;;;;4938339;29;20099;-70
2024/01/27 06:49:02;;;;;;;18.27;4.45;;;23.90;99.90;;;;;;4933235;29;20032;-70
2024/01/27 06:51:29;;;;;;;19.92;3.65;;;23.90;99.90;;;;;;4941462;29;20469;-70
2024/01/27 06:53:57;;;;;;;19.52;3.63;;;24.00;99.90;;;;;;4940971;28;20062;-70
2024/01/27 06:56:24;;;;;;;19.90;4.00;;;24.20;99.90;;;;;;4958572;28;20027;-71
2024/01/27 06:58:51;;;;;;;25.35;4.85;;;24.40;99.90;;;;;;4938916;29;20031;-70
2024/01/27 07:01:19;;;;;;;27.13;4.72;;;24.50;99.90;;;;;;4943869;28;20028;-70
2024/01/27 07:03:46;;;;;;;24.55;4.97;;;24.60;99.90;;;;;;4951422;28;20031;-68
2024/01/27 07:06:13;;;;;;;17.42;4.22;;;24.60;99.90;;;;;;4944118;28;20114;-69
2024/01/27 07:08:41;;;;;;;14.07;3.10;;;24.50;99.90;;;;;;4944275;29;20107;-69
2024/01/27 07:11:09;;;;;;;14.38;2.83;;;24.70;99.90;;;;;;4940906;28;20130;-69
2024/01/27 07:13:36;;;;;;;19.00;3.20;;;24.60;99.90;;;;;;4941083;28;20031;-69
2024/01/27 07:16:04;;;;;;;23.42;3.63;;;24.70;99.90;;;;;;4947706;28;20035;-69
2024/01/27 07:18:31;;;;;;;16.25;3.15;;;24.60;99.90;;;;;;4938924;29;20019;-69
2024/01/27 07:21:01;;;;;;;18.95;3.67;;;24.60;99.90;;;;;;4936973;29;20063;-69
2024/01/27 07:23:28;;;;;;;22.92;3.80;;;24.30;99.90;;;;;;4937442;29;20485;-69
2024/01/27 07:25:57;;;;;;;24.65;3.90;;;24.00;99.90;;;;;;4941005;28;20042;-68
2024/01/27 07:28:24;;;;;;;18.98;3.50;;;23.80;99.90;;;;;;4940462;29;20035;-69
2024/01/27 07:30:51;;;;;;;21.65;3.65;;;23.80;99.90;;;;;;4942450;29;20082;-68
2024/01/27 07:33:19;;;;;;;16.50;3.95;;;23.90;99.90;;;;;;4942468;28;20040;-68
2024/01/27 07:35:46;;;;;;;21.92;3.90;;;23.60;99.90;;;;;;4951294;28;20032;-68
2024/01/27 07:38:13;;;;;;;15.05;3.63;;;23.70;99.90;;;;;;4936268;29;20372;-68
2024/01/27 07:40:41;;;;;;;29.33;3.88;;;23.60;99.90;;;;;;4936866;29;20028;-69
2024/01/27 07:43:08;;;;;;;19.10;3.13;;;23.80;99.90;;;;;;4941926;29;20020;-70
2024/01/27 07:45:35;;;;;;;20.67;4.80;;;23.70;99.90;;;;;;4939623;29;20023;-69
2024/01/27 07:48:03;;;;;;;19.30;3.28;;;23.80;99.90;;;;;;4939960;28;20118;-70
2024/01/27 07:50:31;;;;;;;18.63;3.72;;;24.00;99.90;;;;;;4936287;29;20028;-70
2024/01/27 07:52:59;;;;;;;16.40;2.88;;;23.80;99.90;;;;;;4943581;29;20389;-70
2024/01/27 07:55:26;;;;;;;21.20;3.08;;;23.80;99.90;;;;;;4936204;29;20024;-70
2024/01/27 07:57:53;;;;;;;14.27;3.75;;;23.60;99.90;;;;;;4935847;29;20082;-69
2024/01/27 08:00:21;;;;;;;16.10;2.88;;;23.70;99.90;;;;;;4943974;29;20031;-71
2024/01/27 08:02:48;;;;;;;17.67;3.75;;;23.80;99.90;;;;;;4936185;29;20032;-70
2024/01/27 08:05:16;;;;;;;18.67;3.55;;;23.90;99.90;;;;;;4935583;28;20023;-71
2024/01/27 08:07:43;;;;;;;17.67;3.85;;;24.00;99.90;;;;;;4935771;29;20034;-70
2024/01/27 08:10:11;;;;;;;15.15;3.42;;;24.10;99.90;;;;;;4941303;29;20373;-70
2024/01/27 08:12:38;;;;;;;27.42;3.30;;;24.30;99.90;;;;;;4941996;29;20047;-70
2024/01/27 08:15:06;;;;;;;17.33;3.33;;;24.30;99.90;;;;;;4935702;29;20035;-68
2024/01/27 08:17:34;;;;;;;17.27;3.75;;;24.20;99.90;;;;;;4943577;28;20027;-70
2024/01/27 08:20:01;;;;;;;22.20;3.97;;;24.40;99.90;;;;;;4933747;28;20035;-69
2024/01/27 08:22:28;;;;;;;21.05;3.22;;;24.40;99.90;;;;;;4937599;28;20075;-69
2024/01/27 08:24:59;;;;;;;20.58;3.35;;;24.40;99.90;;;;;;4951462;28;20031;-71
2024/01/27 08:27:26;;;;;;;15.10;3.03;;;24.40;99.90;;;;;;4938399;28;20117;-70
2024/01/27 08:29:54;;;;;;;24.25;3.13;;;24.50;99.90;;;;;;4941010;28;20020;-70
2024/01/27 08:32:21;;;;;;;17.80;3.00;;;24.70;99.90;;;;;;4940596;28;20075;-69
2024/01/27 08:34:49;;;;;;;21.02;3.75;;;24.70;99.90;;;;;;4937648;28;20450;-70
2024/01/27 08:37:20;;;;;;;21.85;3.40;;;24.70;99.90;;;;;;4934309;28;20066;-69
2024/01/27 08:39:48;;;;;;;17.85;3.67;;;24.70;99.90;;;;;;4942468;28;20035;-69
2024/01/27 08:42:15;;;;;;;17.63;3.80;;;24.70;99.90;;;;;;4942416;28;20034;-70
2024/01/27 08:44:42;;;;;;;16.58;4.07;;;24.80;99.90;;;;;;4937642;29;20035;-69
2024/01/27 08:47:10;;;;;;;20.63;3.95;;;24.80;99.90;;;;;;4943187;28;20027;-69
2024/01/27 08:49:37;;;;;;;19.10;3.88;;;24.80;99.90;;;;;;4939669;29;20050;-69
2024/01/27 08:52:05;;;;;;;17.88;3.63;;;24.80;99.90;;;;;;4943665;28;20044;-70
2024/01/27 08:54:33;;;;;;;17.65;3.65;;;24.90;99.90;;;;;;4934951;29;20091;-69
2024/01/27 08:57:00;;;;;;;15.98;3.20;;;24.90;99.90;;;;;;4939553;29;20023;-73
2024/01/27 08:59:27;;;;;;;21.48;4.00;;;24.60;99.90;;;;;;4942109;28;20043;-73
2024/01/27 09:01:55;;;;;;;13.20;3.35;;;24.40;99.90;;;;;;4933874;28;20040;-73
2024/01/27 09:04:23;;;;;;;19.67;3.42;;;24.10;99.90;;;;;;4935729;29;20022;-72
2024/01/27 09:06:50;;;;;;;28.30;4.15;;;24.00;99.90;;;;;;4940415;29;20396;-73
2024/01/27 09:09:17;;;;;;;17.52;2.83;;;24.00;99.90;;;;;;4937059;28;20473;-73
2024/01/27 09:11:45;;;;;;;23.15;3.53;;;24.00;99.90;;;;;;4950789;28;20141;-73
2024/01/27 09:14:13;;;;;;;20.88;3.65;;;24.10;99.90;;;;;;4940907;29;20083;-74
2024/01/27 09:16:40;;;;;;;18.17;3.03;;;24.00;99.90;;;;;;4935898;29;20057;-73
2024/01/27 09:19:08;;;;;;;22.02;3.38;;;24.00;99.90;;;;;;4935164;29;20063;-73
2024/01/27 09:21:36;;;;;;;21.40;3.33;;;23.80;99.90;;;;;;4934573;29;20111;-72
2024/01/27 09:24:04;;;;;;;24.92;5.45;;;23.80;99.90;;;;;;4937628;29;20039;-73
2024/01/27 09:26:31;;;;;;;18.27;4.43;;;23.80;99.90;;;;;;4942549;29;20377;-72
2024/01/27 09:28:59;;;;;;;23.98;3.92;;;23.70;99.90;;;;;;4934731;28;20091;-69
2024/01/27 09:31:26;;;;;;;17.90;3.75;;;23.70;99.90;;;;;;4947161;29;20428;-69
2024/01/27 09:33:55;;;;;;;19.83;4.10;;;23.70;99.90;;;;;;4942275;28;20035;-70
2024/01/27 09:36:23;;;;;;;20.52;3.95;;;23.70;99.90;;;;;;4944371;28;20028;-68
2024/01/27 09:38:51;;;;;;;23.63;4.07;;;23.70;99.90;;;;;;4949581;29;20141;-69
2024/01/27 09:41:19;;;;;;;19.08;4.05;;;23.80;99.90;;;;;;4940041;28;20032;-69
2024/01/27 09:43:47;;;;;;;24.73;4.05;;;23.90;99.90;;;;;;4944730;28;20035;-69
2024/01/27 09:46:16;;;;;;;21.00;3.95;;;23.90;99.90;;;;;;4944411;29;20501;-73
2024/01/27 09:48:44;;;;;;;23.17;4.47;;;23.90;99.90;;;;;;4944006;28;20034;-68
2024/01/27 09:51:12;;;;;;;24.40;3.97;;;23.80;99.90;;;;;;4933702;29;20028;-69
2024/01/27 09:53:40;;;;;;;23.42;4.40;;;23.80;99.90;;;;;;4937135;28;20043;-69
2024/01/27 09:56:08;;;;;;;21.60;5.65;;;23.70;99.90;;;;;;4933601;28;20040;-68
2024/01/27 09:58:36;;;;;;;23.67;4.53;;;23.60;99.90;;;;;;4948013;29;20086;-68
2024/01/27 10:01:04;;;;;;;20.08;4.38;;;23.60;99.90;;;;;;4937018;28;20032;-68
2024/01/27 10:03:32;;;;;;;20.67;4.88;;;23.50;99.90;;;;;;4935251;29;20599;-69
2024/01/27 10:06:00;;;;;;;27.63;5.10;;;23.40;99.90;;;;;;4934949;29;20134;-70
2024/01/27 10:08:28;;;;;;;17.05;4.45;;;23.40;99.90;;;;;;4937074;29;20118;-70
2024/01/27 10:10:56;;;;;;;29.17;5.00;;;23.40;99.90;;;;;;4944018;28;20065;-70
2024/01/27 10:13:27;;;;;;;17.98;4.32;;;23.40;99.90;;;;;;4942098;29;20382;-68
2024/01/27 10:16:12;;;;;;;18.58;4.80;;;23.40;99.90;;;;;;4941604;29;20027;-68
2024/01/27 10:18:39;;;;;;;27.58;5.40;;;23.40;99.90;;;;;;4934169;29;20481;-68
2024/01/27 10:21:20;;;;;;;24.98;4.75;;;23.40;99.90;;;;;;4939827;29;20042;-69
2024/01/27 10:23:48;;;;;;;19.00;4.20;;;23.30;99.90;;;;;;4932581;29;20032;-70
2024/01/27 10:26:15;;;;;;;25.15;4.50;;;23.30;99.90;;;;;;4941705;29;20031;-73
2024/01/27 10:28:42;;;;;;;22.35;4.25;;;23.30;99.90;;;;;;4939692;29;20035;-72
2024/01/27 10:31:13;;;;;;;22.50;4.75;;;23.30;99.90;;;;;;4938082;29;20035;-73
2024/01/27 10:33:51;;;;;;;22.20;4.30;;;23.30;99.90;;;;;;4951061;28;20059;-73
2024/01/27 10:36:18;;;;;;;21.42;4.43;;;23.30;99.90;;;;;;4934528;28;20662;-73
2024/01/27 10:38:46;;;;;;;20.98;4.15;;;23.30;99.90;;;;;;4950377;28;20064;-73
2024/01/27 10:41:26;;;;;;;23.27;4.25;;;23.20;99.90;;;;;;4933933;29;20398;-72
2024/01/27 10:43:54;;;;;;;25.75;4.47;;;23.20;99.90;;;;;;4934532;29;20023;-73
2024/01/27 10:46:22;;;;;;;25.73;4.00;;;23.10;99.90;;;;;;4941179;28;20086;-73
2024/01/27 10:48:53;;;;;;;18.92;3.85;;;23.10;99.90;;;;;;4949202;29;20428;-72
2024/01/27 10:51:37;;;;;;;24.77;3.67;;;23.10;99.90;;;;;;4933648;29;20473;-73
2024/01/27 10:54:07;;;;;;;19.58;4.18;;;23.20;99.90;;;;;;4935194;29;20054;-72
2024/01/27 10:56:37;;;;;;;17.80;3.65;;;23.10;99.90;;;;;;4935449;28;20530;-72
2024/01/27 10:59:08;;;;;;;14.45;3.33;;;23.10;99.90;;;;;;4942228;28;20113;-72
2024/01/27 11:01:38;;;;;;;21.48;4.57;;;23.10;99.90;;;;;;4939736;28;20421;-74
2024/01/27 11:04:07;;;;;;;19.17;3.63;;;23.10;99.90;;;;;;4937602;28;20032;-74
2024/01/27 11:06:36;;;;;;;21.77;4.55;;;23.10;99.90;;;;;;4941373;29;20480;-73
2024/01/27 11:09:04;;;;;;;23.63;3.85;;;23.10;99.90;;;;;;4939028;29;20032;-73
2024/01/27 11:11:33;;;;;;;17.30;3.53;;;23.00;99.90;;;;;;4947327;28;20126;-74
2024/01/27 11:14:00;;;;;;;19.40;4.30;;;23.20;99.90;;;;;;4935142;29;20023;-72
2024/01/27 11:16:28;;;;;;;20.77;3.22;;;23.30;99.90;;;;;;4943129;29;20492;-74
2024/01/27 11:18:55;;;;;;;16.17;3.05;;;23.10;99.90;;;;;;4946511;28;20477;-72
2024/01/27 11:21:23;;;;;;;11.80;2.90;;;23.00;99.90;;;;;;4955010;28;20472;-74
2024/01/27 11:23:50;;;;;;;15.98;3.50;;;22.90;99.90;;;;;;4942353;28;20536;-73
2024/01/27 11:26:23;;;;;;;15.45;3.13;;;22.80;99.90;;;;;;4933789;29;20032;-74
2024/01/27 11:28:51;;;;;;;13.93;3.15;;;22.70;99.90;;;;;;4937450;28;20059;-73
2024/01/27 11:31:19;;;;;;;18.00;3.25;;;22.60;99.90;;;;;;4939631;29;20032;-73
2024/01/27 11:33:51;;;;;;;23.38;3.83;;;22.60;99.90;;;;;;4934577;29;20027;-73
2024/01/27 11:36:22;;;;;;;21.98;3.58;;;22.60;99.90;;;;;;4937318;29;20098;-73
2024/01/27 11:38:50;;;;;;;23.38;4.13;;;22.50;99.90;;;;;;4946498;28;20370;-73
2024/01/27 11:41:30;;;;;;;14.23;3.50;;;22.50;99.90;;;;;;4943699;28;20034;-72
2024/01/27 11:44:02;;;;;;;18.58;3.55;;;22.50;99.90;;;;;;4936810;29;20119;-72
2024/01/27 11:46:29;;;;;;;15.90;3.35;;;22.50;99.90;;;;;;4937584;29;20485;-72
2024/01/27 11:48:57;;;;;;;19.45;4.07;;;22.50;99.90;;;;;;4936874;29;20031;-72
2024/01/27 11:51:26;;;;;;;21.83;4.15;;;22.50;99.90;;;;;;4937114;29;20126;-72
2024/01/27 11:53:53;;;;;;;24.23;3.90;;;22.40;99.90;;;;;;4937296;29;20502;-73
2024/01/27 11:56:21;;;;;;;14.93;3.33;;;22.40;99.90;;;;;;4938628;29;20106;-73
2024/01/27 11:58:49;;;;;;;19.48;4.13;;;22.30;99.90;;;;;;4938641;29;20159;-72
2024/01/27 12:01:17;;;;;;;20.95;4.03;;;22.40;99.90;;;;;;4936739;29;20035;-73
2024/01/27 12:03:45;;;;;;;21.42;3.42;;;22.30;99.90;;;;;;4941506;28;20046;-72
2024/01/27 12:06:13;;;;;;;25.92;3.85;;;22.60;99.90;;;;;;4935876;28;20173;-71
2024/01/27 12:08:46;;;;;;;23.38;3.25;;;22.80;99.90;;;;;;4939451;28;20044;-72
2024/01/27 12:11:14;;;;;;;21.98;3.80;;;22.80;99.90;;;;;;4957259;28;20035;-73
2024/01/27 12:13:42;;;;;;;17.23;3.30;;;22.80;99.90;;;;;;4945654;28;20027;-72
2024/01/27 12:16:10;;;;;;;26.13;4.00;;;22.80;99.90;;;;;;4944375;29;20032;-72
2024/01/27 12:18:37;;;;;;;18.98;3.97;;;22.80;99.90;;;;;;4938014;29;20552;-73
2024/01/27 12:21:05;;;;;;;15.18;3.38;;;22.60;99.90;;;;;;4937205;28;20036;-71
2024/01/27 12:23:32;;;;;;;19.33;3.90;;;22.30;99.90;;;;;;4943191;29;20031;-71
2024/01/27 12:26:00;;;;;;;18.02;4.03;;;22.10;99.90;;;;;;4940778;28;20103;-71
2024/01/27 12:28:29;;;;;;;29.08;4.05;;;22.10;99.90;;;;;;4937870;29;20419;-71
2024/01/27 12:30:57;;;;;;;17.73;3.75;;;22.10;99.90;;;;;;4941439;29;20035;-71
2024/01/27 12:33:25;;;;;;;18.17;3.42;;;22.10;99.90;;;;;;4941212;29;20083;-71
2024/01/27 12:35:54;;;;;;;17.35;3.53;;;22.20;99.90;;;;;;4936803;29;21315;-72
2024/01/27 12:38:23;;;;;;;20.42;3.72;;;22.30;99.90;;;;;;4943310;29;20466;-72
2024/01/27 12:40:50;;;;;;;20.38;4.38;;;22.20;99.90;;;;;;4950084;29;20058;-71